createdAt,value
2019-01-10T00:00:17.595Z,8.53
2019-01-10T00:02:46.139Z,5.67
2019-01-10T00:05:15.083Z,7.07
2019-01-10T00:07:43.569Z,10.00
2019-01-10T00:10:14.503Z,8.07
2019-01-10T00:12:43.033Z,5.83
2019-01-10T00:15:18.609Z,7.63
2019-01-10T00:17:46.763Z,6.47
2019-01-10T00:20:16.920Z,7.37
2019-01-10T00:22:45.395Z,11.93
2019-01-10T00:25:15.392Z,10.33
2019-01-10T00:27:43.843Z,8.40
2019-01-10T00:30:20.269Z,7.40
2019-01-10T00:32:48.903Z,10.20
2019-01-10T00:35:17.303Z,9.00
2019-01-10T00:37:45.707Z,8.90
2019-01-10T00:40:16.205Z,9.23
2019-01-10T00:42:49.756Z,10.70
2019-01-10T00:45:16.991Z,8.97
2019-01-10T00:47:45.831Z,8.67
2019-01-10T00:50:16.361Z,7.07
2019-01-10T00:52:44.843Z,10.93
2019-01-10T00:55:13.715Z,9.03
2019-01-10T00:57:42.196Z,11.23
2019-01-10T01:00:14.489Z,10.03
2019-01-10T01:02:42.952Z,7.47
2019-01-10T01:05:13.696Z,7.20
2019-01-10T01:07:42.285Z,8.60
2019-01-10T01:10:14.120Z,10.03
2019-01-10T01:12:42.524Z,8.80
2019-01-10T01:15:13.082Z,7.23
2019-01-10T01:17:41.547Z,7.10
2019-01-10T01:20:11.667Z,12.87
2019-01-10T01:22:40.088Z,12.07
2019-01-10T01:25:11.012Z,10.73
2019-01-10T01:27:39.575Z,9.97
2019-01-10T01:30:11.267Z,5.70
2019-01-10T01:32:39.667Z,7.63
2019-01-10T01:35:08.792Z,9.33
2019-01-10T01:37:37.268Z,7.07
2019-01-10T01:40:09.302Z,8.83
2019-01-10T01:42:37.691Z,9.07
2019-01-10T01:45:08.748Z,5.93
2019-01-10T01:47:37.168Z,7.30
2019-01-10T01:50:08.632Z,9.80
2019-01-10T01:52:37.065Z,9.50
2019-01-10T01:55:06.119Z,7.07
2019-01-10T01:57:34.513Z,8.93
2019-01-10T02:00:03.250Z,8.90
2019-01-10T02:02:31.317Z,7.10
2019-01-10T02:04:59.727Z,8.87
2019-01-10T02:07:29.016Z,9.00
2019-01-10T02:09:57.492Z,9.10
2019-01-10T02:12:25.892Z,8.63
2019-01-10T02:14:54.301Z,10.43
2019-01-10T02:17:22.711Z,12.70
2019-01-10T02:19:51.141Z,8.03
2019-01-10T02:22:19.546Z,6.97
2019-01-10T02:24:47.949Z,5.93
2019-01-10T02:27:16.424Z,10.53
2019-01-10T02:29:44.844Z,9.67
2019-01-10T02:32:13.251Z,6.87
2019-01-10T02:34:41.659Z,6.70
2019-01-10T02:37:10.089Z,8.47
2019-01-10T02:39:38.491Z,6.47
2019-01-10T02:42:06.876Z,8.77
2019-01-10T02:44:35.292Z,8.77
2019-01-10T02:47:03.684Z,8.63
2019-01-10T02:49:32.085Z,6.33
2019-01-10T02:52:00.519Z,6.70
2019-01-10T02:54:28.910Z,7.67
2019-01-10T02:56:57.440Z,11.07
2019-01-10T02:59:25.978Z,7.53
2019-01-10T03:01:54.394Z,8.80
2019-01-10T03:04:22.859Z,7.77
2019-01-10T03:06:51.255Z,8.53
2019-01-10T03:09:19.659Z,8.10
2019-01-10T03:11:48.052Z,4.77
2019-01-10T03:14:17.158Z,7.87
2019-01-10T03:16:45.563Z,6.30
2019-01-10T03:19:13.944Z,4.87
2019-01-10T03:21:43.679Z,9.53
2019-01-10T03:24:12.068Z,5.23
2019-01-10T03:26:40.449Z,7.27
2019-01-10T03:29:08.874Z,7.30
2019-01-10T03:31:37.276Z,5.30
2019-01-10T03:34:05.737Z,13.80
2019-01-10T03:36:34.144Z,6.60
2019-01-10T03:39:02.603Z,9.03
2019-01-10T03:41:30.993Z,9.17
2019-01-10T03:43:59.407Z,10.63
2019-01-10T03:46:27.825Z,5.40
2019-01-10T03:48:56.222Z,10.27
2019-01-10T03:51:24.942Z,10.03
2019-01-10T03:53:54.009Z,4.43
2019-01-10T03:56:22.699Z,8.10
2019-01-10T03:58:52.695Z,8.97
2019-01-10T04:01:21.118Z,7.97
2019-01-10T04:03:49.597Z,8.67
2019-01-10T04:06:17.991Z,8.47
2019-01-10T04:08:46.393Z,6.13
2019-01-10T04:11:14.804Z,5.07
2019-01-10T04:13:43.452Z,7.53
2019-01-10T04:16:11.905Z,7.47
2019-01-10T04:18:40.309Z,12.83
2019-01-10T04:21:17.130Z,8.67
2019-01-10T04:23:38.858Z,5.63
2019-01-10T04:26:07.262Z,11.73
2019-01-10T04:28:35.652Z,6.13
2019-01-10T04:31:04.122Z,8.70
2019-01-10T04:33:33.185Z,13.70
2019-01-10T04:36:01.579Z,4.80
2019-01-10T04:38:29.966Z,6.83
2019-01-10T04:40:58.355Z,5.60
2019-01-10T04:43:26.757Z,8.17
2019-01-10T04:45:55.148Z,5.50
2019-01-10T04:48:23.549Z,5.57
2019-01-10T04:50:51.951Z,7.53
2019-01-10T04:53:20.363Z,7.60
2019-01-10T04:55:48.774Z,9.23
2019-01-10T04:58:17.172Z,5.67
2019-01-10T05:00:45.581Z,7.50
2019-01-10T05:03:14.009Z,12.50
2019-01-10T05:05:42.400Z,8.73
2019-01-10T05:08:10.826Z,11.30
2019-01-10T05:10:39.232Z,6.17
2019-01-10T05:13:07.638Z,9.73
2019-01-10T05:15:36.029Z,5.97
2019-01-10T05:18:05.180Z,8.70
2019-01-10T05:20:33.578Z,5.33
2019-01-10T05:23:02.541Z,10.00
2019-01-10T05:25:30.968Z,8.10
2019-01-10T05:27:59.346Z,11.33
2019-01-10T05:30:27.835Z,5.67
2019-01-10T05:35:39.767Z,7.63
2019-01-10T05:38:08.724Z,8.67
2019-01-10T05:40:37.204Z,9.90
2019-01-10T05:43:05.628Z,5.67
2019-01-10T05:45:34.036Z,7.27
2019-01-10T05:48:02.448Z,6.67
2019-01-10T05:50:30.834Z,9.33
2019-01-10T05:52:59.497Z,8.23
2019-01-10T05:55:27.893Z,8.87
2019-01-10T05:57:56.306Z,11.07
2019-01-10T06:00:25.944Z,6.20
2019-01-10T06:02:54.347Z,8.67
2019-01-10T06:05:22.810Z,7.03
2019-01-10T06:07:51.244Z,4.93
2019-01-10T06:10:24.672Z,8.90
2019-01-10T06:12:53.077Z,6.53
2019-01-10T06:15:21.628Z,9.23
2019-01-10T06:17:50.191Z,9.30
2019-01-10T06:20:20.736Z,7.30
2019-01-10T06:22:49.218Z,7.53
2019-01-10T06:25:17.611Z,8.93
2019-01-10T06:27:46.012Z,7.90
2019-01-10T06:30:19.347Z,9.10
2019-01-10T06:32:47.744Z,9.20
2019-01-10T06:35:16.229Z,9.97
2019-01-10T06:37:44.671Z,7.80
2019-01-10T06:40:16.212Z,8.93
2019-01-10T06:42:44.612Z,10.73
2019-01-10T06:45:15.712Z,5.50
2019-01-10T06:47:44.189Z,8.27
2019-01-10T06:50:15.034Z,13.17
2019-01-10T06:52:43.494Z,8.17
2019-01-10T06:55:12.020Z,7.70
2019-01-10T06:57:41.489Z,8.57
2019-01-10T07:00:13.193Z,11.83
2019-01-10T07:02:42.354Z,9.07
2019-01-10T07:05:11.182Z,12.23
2019-01-10T07:07:40.275Z,6.97
2019-01-10T07:10:21.140Z,7.93
2019-01-10T07:12:49.582Z,7.17
2019-01-10T07:15:17.972Z,7.60
2019-01-10T07:17:46.813Z,12.27
2019-01-10T07:20:15.287Z,8.53
2019-01-10T07:22:46.397Z,10.10
2019-01-10T07:25:15.533Z,10.40
2019-01-10T07:27:43.944Z,9.50
2019-01-10T07:30:17.354Z,9.03
2019-01-10T07:32:47.059Z,10.17
2019-01-10T07:35:15.522Z,7.13
2019-01-10T07:37:47.665Z,9.00
2019-01-10T07:40:16.537Z,9.80
2019-01-10T07:42:44.940Z,9.63
2019-01-10T07:45:16.437Z,11.77
2019-01-10T07:47:48.205Z,11.83
2019-01-10T07:50:18.534Z,10.10
2019-01-10T07:52:47.972Z,10.53
2019-01-10T07:55:17.035Z,8.37
2019-01-10T07:57:45.502Z,7.53
2019-01-10T08:00:18.729Z,6.10
2019-01-10T08:02:47.251Z,9.70
2019-01-10T08:05:15.740Z,7.33
2019-01-10T08:07:44.595Z,11.20
2019-01-10T08:10:15.411Z,4.50
2019-01-10T08:12:43.974Z,8.40
2019-01-10T08:15:15.999Z,5.87
2019-01-10T08:17:44.709Z,10.97
2019-01-10T08:20:13.383Z,7.70
2019-01-10T08:22:41.824Z,12.50
2019-01-10T08:25:29.560Z,11.57
2019-01-10T08:27:57.965Z,10.03
2019-01-10T08:30:26.666Z,12.43
2019-01-10T08:32:55.144Z,14.13
2019-01-10T08:35:24.184Z,7.33
2019-01-10T08:37:52.595Z,9.33
2019-01-10T08:40:21.461Z,8.73
2019-01-10T08:42:49.880Z,7.07
2019-01-10T08:45:21.899Z,7.43
2019-01-10T08:47:48.600Z,8.13
2019-01-10T08:50:22.678Z,21.43
2019-01-10T08:52:52.791Z,10.37
2019-01-10T08:55:21.352Z,11.57
2019-01-10T08:57:49.795Z,11.07
2019-01-10T09:00:20.320Z,7.83
2019-01-10T09:02:48.788Z,12.53
2019-01-10T09:05:17.273Z,11.17
2019-01-10T09:07:45.721Z,10.70
2019-01-10T09:10:22.912Z,8.93
2019-01-10T09:12:51.370Z,8.80
2019-01-10T09:15:25.387Z,8.00
2019-01-10T09:17:51.586Z,14.50
2019-01-10T09:20:20.052Z,9.97
2019-01-10T09:22:48.728Z,10.80
2019-01-10T09:25:17.844Z,9.47
2019-01-10T09:27:48.363Z,11.10
2019-01-10T09:30:18.798Z,8.10
2019-01-10T09:32:47.276Z,8.33
2019-01-10T09:35:18.927Z,8.70
2019-01-10T09:37:47.580Z,9.87
2019-01-10T09:40:18.005Z,8.30
2019-01-10T09:42:46.473Z,9.53
2019-01-10T09:45:20.702Z,8.70
2019-01-10T09:50:26.512Z,9.83
2019-01-10T09:52:54.983Z,8.33
2019-01-10T09:55:23.644Z,13.33
2019-01-10T09:57:52.071Z,9.63
2019-01-10T10:00:23.397Z,6.73
2019-01-10T10:02:51.803Z,7.43
2019-01-10T10:05:20.840Z,9.63
2019-01-10T10:07:49.388Z,7.77
2019-01-10T10:10:19.294Z,11.43
2019-01-10T10:12:47.738Z,9.20
2019-01-10T10:15:17.988Z,9.00
2019-01-10T10:17:46.507Z,10.20
2019-01-10T10:20:20.307Z,9.40
2019-01-10T10:22:48.790Z,11.93
2019-01-10T10:25:17.192Z,9.90
2019-01-10T10:27:45.863Z,10.77
2019-01-10T10:30:19.172Z,12.43
2019-01-10T10:32:47.821Z,9.33
2019-01-10T10:35:17.884Z,15.80
2019-01-10T10:37:46.764Z,14.00
2019-01-10T10:40:18.402Z,10.40
2019-01-10T10:42:49.126Z,12.07
2019-01-10T10:45:19.724Z,11.13
2019-01-10T10:47:48.299Z,13.07
2019-01-10T10:50:22.379Z,13.60
2019-01-10T10:52:51.156Z,9.27
2019-01-10T10:55:19.743Z,9.10
2019-01-10T10:57:49.811Z,12.47
2019-01-10T11:00:23.812Z,9.33
2019-01-10T11:02:52.989Z,9.67
2019-01-10T11:05:22.283Z,11.83
2019-01-10T11:07:50.850Z,10.10
2019-01-10T11:10:20.909Z,11.53
2019-01-10T11:12:50.267Z,13.20
2019-01-10T11:15:20.811Z,10.23
2019-01-10T11:17:51.215Z,15.47
2019-01-10T11:20:21.661Z,9.47
2019-01-10T11:22:50.362Z,10.53
2019-01-10T11:25:21.625Z,10.07
2019-01-10T11:27:51.720Z,10.07
2019-01-10T11:30:21.101Z,9.63
2019-01-10T11:32:49.731Z,8.47
2019-01-10T11:35:18.267Z,11.33
2019-01-10T11:37:47.448Z,12.37
2019-01-10T11:40:21.548Z,10.23
2019-01-10T11:42:53.203Z,10.17
2019-01-10T11:45:22.889Z,9.57
2019-01-10T11:47:52.093Z,15.30
2019-01-10T11:50:20.717Z,11.30
2019-01-10T11:52:50.084Z,7.97
2019-01-10T11:55:18.885Z,9.63
2019-01-10T11:57:47.420Z,12.23
2019-01-10T12:00:18.956Z,12.70
2019-01-10T12:02:48.225Z,13.20
2019-01-10T12:05:16.885Z,10.37
2019-01-10T12:07:45.426Z,11.00
2019-01-10T12:10:14.585Z,9.80
2019-01-10T12:12:43.090Z,9.93
2019-01-10T12:15:12.707Z,9.03
2019-01-10T12:17:41.246Z,8.07
2019-01-10T12:20:12.572Z,8.67
2019-01-10T12:22:42.616Z,9.83
2019-01-10T12:25:17.000Z,11.77
2019-01-10T12:27:45.902Z,13.03
2019-01-10T12:30:20.149Z,7.13
2019-01-10T12:32:48.776Z,10.07
2019-01-10T12:35:19.732Z,9.33
2019-01-10T12:37:50.302Z,14.37
2019-01-10T12:40:25.482Z,6.87
2019-01-10T12:42:50.001Z,11.07
2019-01-10T12:45:22.020Z,11.20
2019-01-10T12:47:53.256Z,8.93
2019-01-10T12:50:24.157Z,10.60
2019-01-10T12:52:52.793Z,10.00
2019-01-10T12:55:23.430Z,9.50
2019-01-10T12:57:53.407Z,12.80
2019-01-10T13:00:25.499Z,9.60
2019-01-10T13:02:56.403Z,9.50
2019-01-10T13:05:24.992Z,11.70
2019-01-10T13:08:03.498Z,11.17
2019-01-10T13:10:32.713Z,9.53
2019-01-10T13:12:59.504Z,9.20
2019-01-10T13:15:30.200Z,11.17
2019-01-10T13:18:00.421Z,11.10
2019-01-10T13:20:30.570Z,10.20
2019-01-10T13:23:01.118Z,14.50
2019-01-10T13:25:32.237Z,11.43
2019-01-10T13:28:01.017Z,7.27
2019-01-10T13:30:31.187Z,15.70
2019-01-10T13:33:26.561Z,12.67
2019-01-10T13:35:47.500Z,12.13
2019-01-10T13:38:15.997Z,9.97
2019-01-10T13:40:44.534Z,12.13
2019-01-10T13:43:14.909Z,11.17
2019-01-10T13:45:46.375Z,7.57
2019-01-10T13:48:17.078Z,10.90
2019-01-10T13:50:45.733Z,10.90
2019-01-10T13:53:15.800Z,9.77
2019-01-10T13:55:44.335Z,12.43
2019-01-10T13:58:14.465Z,10.93
2019-01-10T14:03:46.270Z,7.50
2019-01-10T14:06:16.376Z,12.23
2019-01-10T14:08:44.873Z,7.23
2019-01-10T14:11:33.284Z,7.77
2019-01-10T14:14:03.295Z,7.07
2019-01-10T14:16:32.816Z,8.13
2019-01-10T14:19:05.576Z,8.23
2019-01-10T14:21:35.559Z,8.37
2019-01-10T14:24:06.129Z,9.10
2019-01-10T14:26:38.368Z,10.00
2019-01-10T14:29:06.970Z,9.00
2019-01-10T14:31:35.521Z,8.23
2019-01-10T14:34:04.298Z,10.33
2019-01-10T14:36:32.889Z,10.67
2019-01-10T14:39:03.413Z,9.87
2019-01-10T14:41:31.680Z,9.93
2019-01-10T14:44:00.232Z,7.57
2019-01-10T14:46:29.630Z,13.70
2019-01-10T14:48:58.115Z,9.60
2019-01-10T14:51:27.433Z,9.40
2019-01-10T14:53:59.198Z,11.57
2019-01-10T14:56:27.908Z,9.73
2019-01-10T14:58:58.857Z,9.93
2019-01-10T15:01:28.066Z,6.90
2019-01-10T15:03:56.756Z,12.73
2019-01-10T15:06:29.938Z,15.13
2019-01-10T15:09:00.209Z,12.17
2019-01-10T15:11:29.539Z,12.97
2019-01-10T15:13:58.365Z,13.30
2019-01-10T15:16:28.439Z,11.07
2019-01-10T15:18:57.977Z,12.97
2019-01-10T15:21:28.045Z,7.47
2019-01-10T15:23:59.686Z,9.03
2019-01-10T15:26:30.515Z,10.33
2019-01-10T15:28:59.035Z,13.43
2019-01-10T15:31:28.152Z,7.50
2019-01-10T15:33:56.821Z,11.57
2019-01-10T15:36:25.535Z,10.90
2019-01-10T15:38:54.016Z,6.43
2019-01-10T15:41:22.464Z,13.13
2019-01-10T15:43:50.993Z,10.73
2019-01-10T15:46:19.530Z,11.77
2019-01-10T15:48:49.269Z,13.50
2019-01-10T15:51:28.882Z,13.20
2019-01-10T15:54:20.515Z,10.77
2019-01-10T16:09:39.949Z,17.20
2019-01-10T16:12:08.371Z,16.07
2019-01-10T16:14:36.781Z,11.17
2019-01-10T16:17:05.271Z,17.53
2019-01-10T16:19:33.676Z,14.53
2019-01-10T16:22:02.088Z,17.80
2019-01-10T16:24:33.471Z,13.60
2019-01-10T16:27:01.896Z,11.97
2019-01-10T16:29:30.376Z,15.17
2019-01-10T16:31:58.786Z,12.20
2019-01-10T16:34:27.211Z,19.30
2019-01-10T16:36:55.646Z,15.10
2019-01-10T16:39:24.046Z,15.53
2019-01-10T16:41:52.448Z,14.77
2019-01-10T16:44:20.849Z,15.07
2019-01-10T16:46:49.252Z,13.17
2019-01-10T16:49:17.701Z,16.77
2019-01-10T16:51:46.135Z,13.77
2019-01-10T16:54:14.545Z,16.43
2019-01-10T16:56:42.952Z,16.37
2019-01-10T16:59:11.435Z,16.20
2019-01-10T17:01:39.835Z,13.90
2019-01-10T17:04:08.255Z,16.37
2019-01-10T17:06:36.711Z,14.40
2019-01-10T17:09:07.439Z,16.33
2019-01-10T17:11:35.929Z,14.40
2019-01-10T17:14:04.667Z,13.90
2019-01-10T17:16:33.127Z,13.47
2019-01-10T17:19:01.788Z,12.50
2019-01-10T17:21:30.203Z,16.00
2019-01-10T17:23:58.636Z,15.63
2019-01-10T17:26:27.864Z,18.37
2019-01-10T17:28:56.336Z,14.90
2019-01-10T17:31:24.742Z,18.57
2019-01-10T17:33:53.148Z,15.00
2019-01-10T17:36:21.541Z,17.63
2019-01-10T17:38:50.640Z,16.20
2019-01-10T17:41:19.071Z,13.77
2019-01-10T17:43:47.474Z,15.13
2019-01-10T17:46:15.903Z,14.10
2019-01-10T17:48:44.317Z,13.03
2019-01-10T17:51:12.881Z,13.30
2019-01-10T17:53:41.262Z,13.10
2019-01-10T17:56:09.705Z,16.97
2019-01-10T17:58:38.089Z,12.10
2019-01-10T18:01:06.556Z,17.57
2019-01-10T18:03:40.092Z,17.23
2019-01-10T18:06:05.178Z,16.33
2019-01-10T18:08:33.876Z,16.13
2019-01-10T18:11:02.300Z,17.80
2019-01-10T18:13:30.781Z,13.03
2019-01-10T18:16:01.929Z,17.70
2019-01-10T18:18:30.345Z,22.00
2019-01-10T18:20:58.743Z,23.33
2019-01-10T18:23:28.378Z,14.60
2019-01-10T18:25:56.839Z,15.27
2019-01-10T18:28:25.260Z,15.97
2019-01-10T18:30:53.663Z,17.67
2019-01-10T18:33:22.087Z,22.07
2019-01-10T18:35:50.465Z,21.17
2019-01-10T18:38:18.896Z,21.43
2019-01-10T18:40:47.308Z,21.23
2019-01-10T18:43:15.389Z,18.13
2019-01-10T18:45:43.810Z,21.47
2019-01-10T18:48:12.236Z,12.17
2019-01-10T18:50:40.632Z,15.53
2019-01-10T18:53:09.048Z,18.33
2019-01-10T18:55:37.513Z,17.33
2019-01-10T18:58:06.018Z,15.60
2019-01-10T19:00:34.728Z,14.83
2019-01-10T19:03:03.601Z,24.80
2019-01-10T19:05:32.132Z,17.83
2019-01-10T19:08:00.634Z,11.93
2019-01-10T19:10:29.188Z,19.20
2019-01-10T19:12:57.658Z,17.17
2019-01-10T19:15:26.136Z,14.73
2019-01-10T19:17:54.907Z,18.00
2019-01-10T19:20:25.266Z,11.83
2019-01-10T19:22:54.174Z,13.97
2019-01-10T19:25:22.601Z,12.23
2019-01-10T19:27:51.085Z,19.57
2019-01-10T19:30:24.756Z,16.80
2019-01-10T19:32:53.306Z,17.33
2019-01-10T19:35:21.717Z,19.53
2019-01-10T19:37:50.165Z,18.77
2019-01-10T19:40:21.018Z,14.00
2019-01-10T19:42:49.422Z,15.47
2019-01-10T19:45:22.410Z,15.87
2019-01-10T19:47:50.959Z,18.07
2019-01-10T19:50:21.454Z,16.13
2019-01-10T19:52:50.008Z,16.23
2019-01-10T19:55:19.732Z,17.23
2019-01-10T19:57:48.290Z,13.43
2019-01-10T20:00:28.928Z,13.37
2019-01-10T20:02:57.463Z,19.07
2019-01-10T20:05:26.007Z,20.67
2019-01-10T20:07:54.497Z,20.83
2019-01-10T20:10:22.968Z,16.20
2019-01-10T20:12:51.548Z,15.67
2019-01-10T20:15:21.279Z,13.07
2019-01-10T20:17:49.755Z,16.17
2019-01-10T20:20:24.077Z,18.00
2019-01-10T20:22:52.628Z,18.43
2019-01-10T20:25:21.198Z,16.90
2019-01-10T20:27:49.687Z,15.17
2019-01-10T20:30:18.740Z,16.73
2019-01-10T20:32:47.231Z,15.63
2019-01-10T20:35:15.840Z,13.23
2019-01-10T20:37:44.328Z,18.67
2019-01-10T20:40:17.692Z,21.13
2019-01-10T20:42:46.259Z,16.87
2019-01-10T20:45:14.918Z,21.97
2019-01-10T20:47:43.479Z,13.90
2019-01-10T20:50:13.940Z,14.33
2019-01-10T20:52:42.449Z,14.37
2019-01-10T20:55:13.096Z,19.23
2019-01-10T20:57:41.588Z,16.80
2019-01-10T21:00:15.771Z,20.37
2019-01-10T21:02:44.253Z,21.53
2019-01-10T21:05:13.005Z,14.37
2019-01-10T21:07:41.572Z,14.10
2019-01-10T21:10:13.247Z,15.60
2019-01-10T21:12:41.875Z,15.20
2019-01-10T21:15:13.951Z,16.67
2019-01-10T21:17:42.535Z,15.20
2019-01-10T21:20:11.812Z,13.90
2019-01-10T21:22:40.227Z,17.93
2019-01-10T21:25:10.826Z,15.67
2019-01-10T21:27:40.340Z,17.90
2019-01-10T21:30:11.914Z,19.90
2019-01-10T21:32:40.993Z,23.70
2019-01-10T21:35:09.972Z,17.53
2019-01-10T21:37:38.371Z,19.43
2019-01-10T21:40:10.088Z,16.30
2019-01-10T21:42:38.490Z,20.03
2019-01-10T21:45:09.992Z,15.43
2019-01-10T21:47:38.486Z,17.03
2019-01-10T21:50:10.251Z,18.80
2019-01-10T21:52:38.678Z,16.63
2019-01-10T21:55:09.517Z,18.40
2019-01-10T21:57:38.070Z,15.27
2019-01-10T22:00:09.544Z,18.47
2019-01-10T22:02:37.962Z,17.63
2019-01-10T22:05:06.804Z,20.40
2019-01-10T22:07:35.212Z,17.00
2019-01-10T22:10:04.974Z,17.43
2019-01-10T22:12:33.384Z,18.70
2019-01-10T22:15:01.854Z,17.53
2019-01-10T22:17:30.248Z,16.00
2019-01-10T22:19:58.677Z,18.20
2019-01-10T22:22:27.066Z,14.40
2019-01-10T22:24:55.467Z,19.43
2019-01-10T22:27:23.873Z,20.27
2019-01-10T22:29:52.272Z,20.63
2019-01-10T22:32:20.781Z,18.77
2019-01-10T22:34:49.171Z,17.03
2019-01-10T22:37:17.568Z,20.07
2019-01-10T22:39:46.443Z,19.33
2019-01-10T22:42:14.974Z,21.83
2019-01-10T22:44:43.456Z,18.20
2019-01-10T22:47:11.874Z,21.13
2019-01-10T22:49:40.287Z,21.63
2019-01-10T22:52:08.688Z,19.23
2019-01-10T22:54:37.095Z,19.07
2019-01-10T22:57:05.518Z,19.73
2019-01-10T22:59:33.927Z,15.60
2019-01-10T23:02:03.119Z,20.37
2019-01-10T23:04:32.536Z,18.23
2019-01-10T23:07:01.700Z,16.20
2019-01-10T23:09:30.174Z,22.10
2019-01-10T23:11:58.657Z,19.63
2019-01-10T23:14:27.239Z,15.87
2019-01-10T23:16:55.795Z,20.30
2019-01-10T23:19:24.188Z,21.97
2019-01-10T23:21:52.605Z,19.93
2019-01-10T23:24:26.772Z,20.57
2019-01-10T23:26:52.927Z,23.07
2019-01-10T23:29:21.548Z,18.13
2019-01-10T23:31:50.300Z,18.23
2019-01-10T23:34:18.704Z,20.17
2019-01-10T23:36:49.010Z,20.87
2019-01-10T23:39:19.132Z,21.50
2019-01-10T23:41:47.821Z,20.40
2019-01-10T23:44:16.225Z,21.17
2019-01-10T23:46:44.716Z,19.53
2019-01-10T23:49:13.123Z,26.83
2019-01-10T23:51:41.665Z,21.83
2019-01-10T23:54:10.075Z,20.43
2019-01-10T23:56:38.554Z,28.40
2019-01-10T23:59:06.954Z,23.27
